KEYE

Eagle Creek Airpark

Indianapolis, Indiana, USA
METAR KEYE 191153Z AUTO 13003KT 10SM CLR M01/M03 A3001 RMK AO2 SLP170 T10111028 10000 21033 56005
Observed Flight Rules
Dec-19 @ 11:53 UTC (17 minutes ago) Visual Flight Rules
Wind Visibility Clouds
130° at 3 knots 10 miles
  • Clear skies
Temperatures Readings
Current -1°C / 30°F
Dewpoint -3°C / 27°F
Humidity 86%
Altimeter 30.01" Hg
Pressure 1017 hPa
Elevation 248
METAR KEYE 191153Z AUTO 13003KT 10SM CLR M01/M03 A3001 RMK AO2 SLP170 T10111028 10000 21033 56005
Observed Flight Rules
Dec-19 @ 11:53 UTC
(17 minutes ago)
VFR
Wind Visibility
130° at 3 knots 10 miles
Clouds
  • Clear skies
Temperature Dewpoint
-1°C / 30°F -3°C / 27°F
Humidity Altimeter Pressure
86% 30.01" Hg 1017 hPa